This is the latest recevied weather packets stored in our database for station/object KF6YUA. If no packets are shown the sender has not sent any weather packets the latest 10 day(s).
| Time | Temp. | Humidity | Pressure | Rain* | Wind** | Luminosity | Snow |
|---|---|---|---|---|---|---|---|
| 1777834755 | 15° C | 75% | 1015.2 hPa | 0 mm | - | 154 W/m² | - |
| 1777834452 | 15° C | 76% | 1015.2 hPa | 0 mm | - | 208 W/m² | - |
| 1777834151 | 14.44° C | 78% | 1015.4 hPa | 0 mm | - | 239 W/m² | - |
| 1777833848 | 14.44° C | 78% | 1015.4 hPa | 0 mm | - | 206 W/m² | - |
| 1777833544 | 14.44° C | 78% | 1015.4 hPa | 0 mm | - | 192 W/m² | - |
| 1777833241 | 14.44° C | 78% | 1015.3 hPa | 0 mm | - | 125 W/m² | - |
| 1777832938 | 15° C | 77% | 1015.4 hPa | 0 mm | - | 130 W/m² | - |
| 1777832637 | 15° C | 78% | 1015.3 hPa | 0 mm | - | 110 W/m² | - |
| 1777832334 | 14.44° C | 77% | 1015.3 hPa | 0 mm | - | 138 W/m² | - |
| 1777832031 | 15.56° C | 75% | 1015.3 hPa | 0 mm | - | 323 W/m² | - |
| 1777831727 | 15° C | 76% | 1015.3 hPa | 0 mm | - | 417 W/m² | - |
| 1777831425 | 15° C | 77% | 1015.2 hPa | 0 mm | - | 273 W/m² | - |
| 1777831122 | 14.44° C | 82% | 1015.3 hPa | 0 mm | - | 218 W/m² | - |
| 1777830820 | 13.89° C | 84% | 1015.2 hPa | 0 mm | - | 152 W/m² | - |
| 1777830515 | 13.89° C | 83% | 1015.3 hPa | 0 mm | - | 122 W/m² | - |
| 1777830214 | 13.33° C | 84% | 1015.2 hPa | 0 mm | - | 126 W/m² | - |
| 1777829909 | 13.33° C | 85% | 1015.4 hPa | 0 mm | - | 94 W/m² | - |
| 1777829605 | 13.33° C | 86% | 1015.3 hPa | 0 mm | - | 81 W/m² | - |
| 1777829302 | 13.33° C | 85% | 1015.2 hPa | 0 mm | - | 91 W/m² | - |
| 1777829000 | 13.33° C | 86% | 1015 hPa | 0 mm | - | 89 W/m² | - |
| 1777828696 | 12.78° C | 86% | 1015 hPa | 0 mm | - | 77 W/m² | - |
| 1777828393 | 12.78° C | 86% | 1015 hPa | 0 mm | - | 88 W/m² | - |
| 1777828090 | 12.78° C | 86% | 1015.1 hPa | 0 mm | - | 62 W/m² | - |
| 1777827786 | 13.33° C | 85% | 1015.1 hPa | 0 mm | - | 50 W/m² | - |
| 1777827483 | 13.33° C | 85% | 1014.9 hPa | 0 mm | - | 51 W/m² | - |
* Rain latest hour (hover to see other rain measurements)
** Current wind speed in m/s (hover to see current wind gust speed)